Terminal Aerodrome Forecast
Issued by NWS

Home | Current Version | Previous Version | Text Only | Print | Product List | Glossary On
Versions: 1 2 3 4 5 6 7 8 9 10 11 12 13 14 15 16 17 18 19 20 21 22 23 24 25
361
FTUS43 KDLH 221129
TAFBRD
TAF
KBRD 221129Z 2212/2312 10005KT P6SM VCTS SCT035CB BKN080
      TEMPO 2212/2213 6SM -TSRA BR BKN035CB
     FM221300 13008KT P6SM SCT015 BKN050
     FM221700 16015G20KT P6SM SCT025 BKN130
     FM230300 18012KT P6SM VCTS SCT050CB BKN200 WS015/19040KT
     FM230800 20009KT 3SM BR BKN130=

USA.gov is the U.S. government's official web portal to all federal, state and local government web resources and services.